createdAt,value
2022-10-24T00:01:15.570Z,14.07
2022-10-24T00:03:42.913Z,14.06
2022-10-24T00:06:10.640Z,13.96
2022-10-24T00:08:38.062Z,13.79
2022-10-24T00:11:14.186Z,13.97
2022-10-24T00:13:41.644Z,13.77
2022-10-24T00:16:09.049Z,13.80
2022-10-24T00:18:35.984Z,13.81
2022-10-24T00:21:02.735Z,13.74
2022-10-24T00:23:29.449Z,13.77
2022-10-24T00:25:56.457Z,13.64
2022-10-24T00:28:24.018Z,13.63
2022-10-24T00:30:52.351Z,13.52
2022-10-24T00:33:19.821Z,13.43
2022-10-24T00:35:47.018Z,13.51
2022-10-24T00:38:14.047Z,13.45
2022-10-24T00:40:41.616Z,13.61
2022-10-24T00:43:26.287Z,13.62
2022-10-24T00:45:58.964Z,13.45
2022-10-24T00:48:39.034Z,13.47
2022-10-24T00:51:19.340Z,13.54
2022-10-24T00:53:48.867Z,13.53
2022-10-24T00:56:20.752Z,13.47
2022-10-24T00:58:48.914Z,13.36
2022-10-24T01:01:16.526Z,13.49
2022-10-24T01:03:43.447Z,13.45
2022-10-24T01:06:10.112Z,13.33
2022-10-24T01:08:48.075Z,13.28
2022-10-24T01:11:33.560Z,13.30
2022-10-24T01:14:18.066Z,13.32
2022-10-24T01:16:51.544Z,13.13
2022-10-24T01:19:52.000Z,13.20
2022-10-24T01:22:25.005Z,13.23
2022-10-24T01:25:43.131Z,13.05
2022-10-24T01:28:16.241Z,13.04
2022-10-24T01:30:46.217Z,13.02
2022-10-24T01:33:33.974Z,12.91
2022-10-24T01:36:07.667Z,12.97
2022-10-24T01:38:41.822Z,12.94
2022-10-24T01:41:09.966Z,12.75
2022-10-24T01:43:43.485Z,12.78
2022-10-24T01:46:22.338Z,12.77
2022-10-24T01:48:53.543Z,12.84
2022-10-24T01:51:21.829Z,12.78
2022-10-24T01:53:49.387Z,12.84
2022-10-24T01:56:16.630Z,12.68
2022-10-24T01:58:43.429Z,12.77
2022-10-24T02:01:14.688Z,12.86
2022-10-24T02:03:55.088Z,12.84
2022-10-24T02:06:35.585Z,12.81
2022-10-24T02:09:08.020Z,12.77
2022-10-24T02:11:35.426Z,12.72
2022-10-24T02:14:20.789Z,12.72
2022-10-24T02:16:47.729Z,12.64
2022-10-24T02:19:14.543Z,12.59
2022-10-24T02:22:03.623Z,12.56
2022-10-24T02:24:39.258Z,12.44
2022-10-24T02:27:28.617Z,12.52
2022-10-24T02:30:19.193Z,12.52
2022-10-24T02:32:49.609Z,12.56
2022-10-24T02:35:19.201Z,12.50
2022-10-24T02:37:49.908Z,12.43
2022-10-24T02:40:19.135Z,12.41
2022-10-24T02:42:48.245Z,12.48
2022-10-24T02:45:15.885Z,12.42
2022-10-24T02:47:43.781Z,12.39
2022-10-24T02:50:11.880Z,12.46
2022-10-24T02:52:43.452Z,12.38
2022-10-24T02:55:12.241Z,12.26
2022-10-24T02:57:40.066Z,12.41
2022-10-24T03:00:08.224Z,12.36
2022-10-24T03:02:35.188Z,12.33
2022-10-24T03:05:02.021Z,12.28
2022-10-24T03:09:55.520Z,12.28
2022-10-24T03:12:23.391Z,12.30
2022-10-24T03:14:50.086Z,12.22
2022-10-24T03:17:17.334Z,12.21
2022-10-24T03:19:45.395Z,12.22
2022-10-24T03:22:12.079Z,12.17
2022-10-24T03:24:44.500Z,12.17
2022-10-24T03:27:21.774Z,12.20
2022-10-24T03:29:48.556Z,12.24
2022-10-24T03:32:15.424Z,12.47
2022-10-24T03:34:42.390Z,12.38
2022-10-24T03:37:09.072Z,12.41
2022-10-24T03:39:35.949Z,12.34
2022-10-24T03:42:02.660Z,12.42
2022-10-24T03:44:29.540Z,12.51
2022-10-24T03:46:56.386Z,12.45
2022-10-24T03:49:23.220Z,12.54
2022-10-24T03:51:50.016Z,12.41
2022-10-24T03:54:16.838Z,12.31
2022-10-24T03:56:44.127Z,12.26
2022-10-24T03:59:10.993Z,12.25
2022-10-24T04:01:38.048Z,12.26
2022-10-24T04:04:05.239Z,12.24
2022-10-24T04:06:36.294Z,12.20
2022-10-24T04:09:04.254Z,12.17
2022-10-24T04:11:31.311Z,12.22
2022-10-24T04:13:58.814Z,12.24
2022-10-24T04:16:25.633Z,12.25
2022-10-24T04:18:52.453Z,12.27
2022-10-24T04:21:21.876Z,12.33
2022-10-24T04:23:49.612Z,12.27
2022-10-24T04:26:17.110Z,12.31
2022-10-24T04:28:44.181Z,12.22
2022-10-24T04:31:11.016Z,12.21
2022-10-24T04:33:38.032Z,12.19
2022-10-24T04:36:05.577Z,12.11
2022-10-24T04:38:33.586Z,12.08
2022-10-24T04:41:01.032Z,11.96
2022-10-24T04:43:27.991Z,11.84
2022-10-24T04:45:54.757Z,11.92
2022-10-24T04:48:21.670Z,12.00
2022-10-24T04:50:48.896Z,11.93
2022-10-24T04:53:15.989Z,11.95
2022-10-24T04:55:43.396Z,11.89
2022-10-24T04:58:10.183Z,11.94
2022-10-24T05:00:37.292Z,11.97
2022-10-24T05:03:04.095Z,11.94
2022-10-24T05:05:31.262Z,11.97
2022-10-24T05:07:58.138Z,12.06
2022-10-24T05:10:24.781Z,12.00
2022-10-24T05:12:51.544Z,12.03
2022-10-24T05:15:18.855Z,12.04
2022-10-24T05:17:45.649Z,12.06
2022-10-24T05:20:12.501Z,12.08
2022-10-24T05:22:39.352Z,12.05
2022-10-24T05:25:06.959Z,12.04
2022-10-24T05:27:33.906Z,12.13
2022-10-24T05:30:01.060Z,12.16
2022-10-24T05:32:27.747Z,12.16
2022-10-24T05:34:54.460Z,12.19
2022-10-24T05:37:21.285Z,12.19
2022-10-24T05:39:48.126Z,12.24
2022-10-24T05:42:15.202Z,12.30
2022-10-24T05:44:41.965Z,12.35
2022-10-24T05:47:09.142Z,12.35
2022-10-24T05:49:36.625Z,12.35
2022-10-24T05:52:04.059Z,12.36
2022-10-24T05:54:37.816Z,12.39
2022-10-24T05:57:15.469Z,12.48
2022-10-24T05:59:42.355Z,12.51
2022-10-24T06:02:20.244Z,12.51
2022-10-24T06:04:48.793Z,12.48
2022-10-24T06:07:15.535Z,12.56
2022-10-24T06:09:42.404Z,12.54
2022-10-24T06:12:10.481Z,12.54
2022-10-24T06:14:38.305Z,12.45
2022-10-24T06:17:06.675Z,12.52
2022-10-24T06:19:34.081Z,12.60
2022-10-24T06:22:00.965Z,12.60
2022-10-24T06:24:27.764Z,12.55
2022-10-24T06:26:54.879Z,12.60
2022-10-24T06:29:22.012Z,12.48
2022-10-24T06:31:48.885Z,12.57
2022-10-24T06:34:16.050Z,12.48
2022-10-24T06:36:42.818Z,12.55
2022-10-24T06:39:09.533Z,12.53
2022-10-24T06:41:36.418Z,12.44
2022-10-24T06:44:06.626Z,12.48
2022-10-24T06:46:35.991Z,12.51
2022-10-24T06:49:02.885Z,12.54
2022-10-24T06:51:29.582Z,12.61
2022-10-24T06:53:56.636Z,12.57
2022-10-24T06:56:23.402Z,12.59
2022-10-24T06:58:50.144Z,12.69
2022-10-24T07:01:19.631Z,12.76
2022-10-24T07:03:47.255Z,12.78
2022-10-24T07:06:26.142Z,12.82
2022-10-24T07:08:54.299Z,12.83
2022-10-24T07:11:21.355Z,12.76
2022-10-24T07:13:48.742Z,12.82
2022-10-24T07:16:16.642Z,12.89
2022-10-24T07:18:43.707Z,13.07
2022-10-24T07:21:18.182Z,13.07
2022-10-24T07:23:45.183Z,13.14
2022-10-24T07:26:15.066Z,13.17
2022-10-24T07:28:44.399Z,13.24
2022-10-24T07:31:13.677Z,13.27
2022-10-24T07:33:40.780Z,13.33
2022-10-24T07:36:08.025Z,13.36
2022-10-24T07:38:34.751Z,13.38
2022-10-24T07:41:06.883Z,13.44
2022-10-24T07:43:33.951Z,13.49
2022-10-24T07:48:49.908Z,13.59
2022-10-24T07:51:17.407Z,13.61
2022-10-24T07:53:44.168Z,13.69
2022-10-24T07:56:14.714Z,13.84
2022-10-24T07:58:42.934Z,13.88
2022-10-24T08:01:32.261Z,13.94
2022-10-24T08:03:59.162Z,13.98
2022-10-24T08:06:30.961Z,14.04
2022-10-24T08:08:57.665Z,14.09
2022-10-24T08:11:27.262Z,14.15
2022-10-24T08:13:55.054Z,14.18
2022-10-24T08:16:23.138Z,14.24
2022-10-24T08:18:51.596Z,14.32
2022-10-24T08:21:19.645Z,14.35
2022-10-24T08:23:48.396Z,14.41
2022-10-24T08:26:17.821Z,14.46
2022-10-24T08:28:46.505Z,14.49
2022-10-24T08:31:16.972Z,14.55
2022-10-24T08:33:44.052Z,14.52
2022-10-24T08:36:19.213Z,14.61
2022-10-24T08:38:46.132Z,14.67
2022-10-24T08:41:22.937Z,14.74
2022-10-24T08:43:49.968Z,14.78
2022-10-24T08:46:49.219Z,14.86
2022-10-24T08:49:33.117Z,14.86
2022-10-24T08:52:23.659Z,14.98
2022-10-24T08:54:50.945Z,15.02
2022-10-24T08:57:23.854Z,15.07
2022-10-24T08:59:52.739Z,15.11
2022-10-24T09:02:23.206Z,15.19
2022-10-24T09:04:57.830Z,15.25
2022-10-24T09:10:28.186Z,15.31
2022-10-24T09:12:55.044Z,15.35
2022-10-24T09:15:26.977Z,15.37
2022-10-24T09:17:56.382Z,15.45
2022-10-24T09:20:33.555Z,15.54
2022-10-24T09:23:04.342Z,15.57
2022-10-24T09:25:34.697Z,15.55
2022-10-24T09:28:03.529Z,15.62
2022-10-24T09:30:33.258Z,15.67
2022-10-24T09:33:12.993Z,15.70
2022-10-24T09:35:40.469Z,15.77
2022-10-24T09:38:27.689Z,15.88
2022-10-24T09:40:56.219Z,15.88
2022-10-24T09:43:34.197Z,15.90
2022-10-24T09:46:06.735Z,15.98
2022-10-24T09:48:50.619Z,16.07
2022-10-24T09:51:32.691Z,16.05
2022-10-24T09:54:25.739Z,16.14
2022-10-24T09:57:12.805Z,16.27
2022-10-24T10:00:00.558Z,16.36
2022-10-24T10:02:28.911Z,16.42
2022-10-24T10:05:25.958Z,16.50
2022-10-24T10:07:53.274Z,16.58
2022-10-24T10:10:27.327Z,16.68
2022-10-24T10:13:03.836Z,16.70
2022-10-24T10:15:35.444Z,16.81
2022-10-24T10:18:35.791Z,16.83
2022-10-24T10:21:09.931Z,16.94
2022-10-24T10:23:44.704Z,16.97
2022-10-24T10:26:42.821Z,17.01
2022-10-24T10:29:36.143Z,17.10
2022-10-24T10:32:21.074Z,17.19
2022-10-24T10:34:55.361Z,17.34
2022-10-24T10:37:28.002Z,17.42
2022-10-24T10:39:57.551Z,17.55
2022-10-24T10:42:46.995Z,17.63
2022-10-24T10:45:48.331Z,17.74
2022-10-24T10:48:45.097Z,17.84
2022-10-24T10:51:44.337Z,18.01
2022-10-24T10:54:40.061Z,18.18
2022-10-24T10:57:17.306Z,18.44
2022-10-24T11:00:35.395Z,18.79
2022-10-24T11:03:10.607Z,18.96
2022-10-24T11:06:01.769Z,19.04
2022-10-24T11:09:08.257Z,19.09
2022-10-24T11:11:39.341Z,19.12
2022-10-24T11:14:52.098Z,19.13
2022-10-24T11:17:28.548Z,19.25
2022-10-24T11:20:20.286Z,19.30
2022-10-24T11:22:52.125Z,19.35
2022-10-24T11:25:24.662Z,19.42
2022-10-24T11:27:58.568Z,19.50
2022-10-24T11:30:42.272Z,19.59
2022-10-24T11:33:15.877Z,19.67
2022-10-24T11:35:56.178Z,19.72
2022-10-24T11:38:24.611Z,19.82
2022-10-24T11:40:58.795Z,19.96
2022-10-24T11:43:31.115Z,20.04
2022-10-24T11:46:23.004Z,20.11
2022-10-24T11:48:59.355Z,20.09
2022-10-24T11:51:45.397Z,20.13
2022-10-24T11:54:19.570Z,20.20
2022-10-24T11:56:56.766Z,20.21
2022-10-24T11:59:24.656Z,20.18
2022-10-24T12:02:32.922Z,20.34
2022-10-24T12:05:24.187Z,20.32
2022-10-24T12:08:13.815Z,20.30
2022-10-24T12:10:59.399Z,20.37
2022-10-24T12:14:06.674Z,20.35
2022-10-24T12:17:06.000Z,20.32
2022-10-24T12:19:33.461Z,20.28
2022-10-24T12:22:03.103Z,20.19
2022-10-24T12:24:33.129Z,20.13
2022-10-24T12:27:27.614Z,20.07
2022-10-24T12:30:03.904Z,20.01
2022-10-24T12:32:45.308Z,19.95
2022-10-24T12:35:48.574Z,19.97
2022-10-24T12:38:50.184Z,19.89
2022-10-24T12:41:37.886Z,19.89
2022-10-24T12:44:43.481Z,19.94
2022-10-24T12:47:56.873Z,20.16
2022-10-24T12:53:36.704Z,20.39
2022-10-24T12:56:13.089Z,20.34
2022-10-24T12:58:43.119Z,20.47
2022-10-24T13:01:26.016Z,20.41
2022-10-24T13:04:08.044Z,20.34
2022-10-24T13:07:04.416Z,20.37
2022-10-24T13:09:58.237Z,20.46
2022-10-24T13:13:04.516Z,20.45
2022-10-24T13:16:18.139Z,20.50
2022-10-24T13:22:32.768Z,20.47
2022-10-24T13:25:00.939Z,20.50
2022-10-24T13:27:31.418Z,20.45
2022-10-24T13:30:04.046Z,20.41
2022-10-24T13:32:36.436Z,20.44
2022-10-24T13:35:05.343Z,20.59
2022-10-24T13:37:35.247Z,20.64
2022-10-24T13:40:19.830Z,20.71
2022-10-24T13:42:52.596Z,20.85
2022-10-24T13:46:00.400Z,20.82
2022-10-24T13:48:33.727Z,20.86
2022-10-24T13:51:09.101Z,20.77
2022-10-24T13:53:44.120Z,20.72
2022-10-24T13:56:13.709Z,20.62
2022-10-24T13:58:44.160Z,20.52
2022-10-24T14:01:25.631Z,20.44
2022-10-24T14:03:53.675Z,20.36
2022-10-24T14:06:31.900Z,20.37
2022-10-24T14:09:07.355Z,20.26
2022-10-24T14:11:35.585Z,20.26
2022-10-24T14:14:06.037Z,20.17
2022-10-24T14:16:34.551Z,20.17
2022-10-24T14:19:33.712Z,20.19
2022-10-24T14:22:02.202Z,20.11
2022-10-24T14:24:31.253Z,20.02
2022-10-24T14:26:58.961Z,20.15
2022-10-24T14:29:29.089Z,20.08
2022-10-24T14:31:59.358Z,20.05
2022-10-24T14:34:27.127Z,20.07
2022-10-24T14:36:56.267Z,20.08
2022-10-24T14:39:25.822Z,20.09
2022-10-24T14:42:02.912Z,20.05
2022-10-24T14:44:30.593Z,19.96
2022-10-24T14:47:19.278Z,19.95
2022-10-24T14:49:46.356Z,19.85
2022-10-24T14:52:26.242Z,19.79
2022-10-24T14:55:09.093Z,19.72
2022-10-24T14:57:37.063Z,19.73
2022-10-24T15:00:09.895Z,19.70
2022-10-24T15:02:42.194Z,19.58
2022-10-24T15:05:28.117Z,19.54
2022-10-24T15:08:23.203Z,19.47
2022-10-24T15:10:50.469Z,19.53
2022-10-24T15:13:22.057Z,19.42
2022-10-24T15:15:59.615Z,19.46
2022-10-24T15:18:31.647Z,19.39
2022-10-24T15:21:11.294Z,19.44
2022-10-24T15:23:46.018Z,19.33
2022-10-24T15:26:20.211Z,19.38
2022-10-24T15:29:10.203Z,19.36
2022-10-24T15:31:39.767Z,19.24
2022-10-24T15:34:11.901Z,19.20
2022-10-24T15:36:43.144Z,19.15
2022-10-24T15:39:21.756Z,19.14
2022-10-24T15:41:48.695Z,19.12
2022-10-24T15:44:25.788Z,18.96
2022-10-24T15:46:53.809Z,18.91
2022-10-24T15:49:20.671Z,18.84
2022-10-24T15:51:50.363Z,18.85
2022-10-24T15:54:19.162Z,18.81
2022-10-24T15:56:45.901Z,18.79
2022-10-24T15:59:12.734Z,18.80
2022-10-24T16:01:44.745Z,18.79
2022-10-24T16:04:11.670Z,18.65
2022-10-24T16:06:38.549Z,18.66
2022-10-24T16:09:10.931Z,18.57
2022-10-24T16:11:37.716Z,18.47
2022-10-24T16:14:05.740Z,18.53
2022-10-24T16:16:32.642Z,18.45
2022-10-24T16:18:59.349Z,18.52
2022-10-24T16:21:26.172Z,18.46
2022-10-24T16:23:53.084Z,18.39
2022-10-24T16:26:19.797Z,18.33
2022-10-24T16:28:46.660Z,18.37
2022-10-24T16:31:18.737Z,18.23
2022-10-24T16:33:48.674Z,18.28
2022-10-24T16:36:18.477Z,18.16
2022-10-24T16:38:47.707Z,18.14
2022-10-24T16:41:19.502Z,18.07
2022-10-24T16:43:49.130Z,18.10
2022-10-24T16:46:19.391Z,17.91
2022-10-24T16:48:46.542Z,17.90
2022-10-24T16:51:16.541Z,17.96
2022-10-24T16:53:43.782Z,17.87
2022-10-24T16:56:11.857Z,17.76
2022-10-24T16:58:39.667Z,17.67
2022-10-24T17:01:08.985Z,17.78
2022-10-24T17:03:36.239Z,17.79
2022-10-24T17:06:03.664Z,17.66
2022-10-24T17:08:30.838Z,17.68
2022-10-24T17:10:58.019Z,17.67
2022-10-24T17:13:25.640Z,17.69
2022-10-24T17:15:53.381Z,17.65
2022-10-24T17:18:22.557Z,17.56
2022-10-24T17:20:49.770Z,17.50
2022-10-24T17:23:19.734Z,17.54
2022-10-24T17:25:46.751Z,17.44
2022-10-24T17:28:14.892Z,17.47
2022-10-24T17:30:42.840Z,17.41
2022-10-24T17:33:13.913Z,17.33
2022-10-24T17:35:48.458Z,17.33
2022-10-24T17:38:35.283Z,17.22
2022-10-24T17:41:13.380Z,17.11
2022-10-24T17:43:40.438Z,17.09
2022-10-24T17:46:12.058Z,17.15
2022-10-24T17:48:39.232Z,17.13
2022-10-24T17:51:06.223Z,17.07
2022-10-24T17:53:32.948Z,17.09
2022-10-24T17:55:59.798Z,17.01
2022-10-24T17:58:26.675Z,17.00
2022-10-24T18:00:53.585Z,17.01
2022-10-24T18:03:20.466Z,17.05
2022-10-24T18:05:47.379Z,17.13
2022-10-24T18:08:14.807Z,17.09
2022-10-24T18:10:41.814Z,17.13
2022-10-24T18:13:09.113Z,17.07
2022-10-24T18:15:36.953Z,16.93
2022-10-24T18:18:04.406Z,16.86
2022-10-24T18:20:32.421Z,16.72
2022-10-24T18:22:59.711Z,16.73
2022-10-24T18:25:26.573Z,16.67
2022-10-24T18:27:53.378Z,16.57
2022-10-24T18:30:20.307Z,16.64
2022-10-24T18:32:47.505Z,16.65
2022-10-24T18:35:15.587Z,16.58
2022-10-24T18:37:42.471Z,16.61
2022-10-24T18:40:10.397Z,16.52
2022-10-24T18:42:52.672Z,16.51
2022-10-24T18:45:22.395Z,16.52
2022-10-24T18:47:50.139Z,16.47
2022-10-24T18:50:20.204Z,16.49
2022-10-24T18:53:23.289Z,16.37
2022-10-24T18:55:50.694Z,16.39
2022-10-24T18:58:19.307Z,16.26
2022-10-24T19:00:47.161Z,16.27
2022-10-24T19:03:35.866Z,16.25
2022-10-24T19:06:25.747Z,16.11
2022-10-24T19:08:52.808Z,16.02
2022-10-24T19:11:20.046Z,15.99
2022-10-24T19:13:47.029Z,15.99
2022-10-24T19:16:28.684Z,15.94
2022-10-24T19:18:58.328Z,15.95
2022-10-24T19:21:26.512Z,15.90
2022-10-24T19:23:53.570Z,15.88
2022-10-24T19:26:20.612Z,15.75
2022-10-24T19:28:47.488Z,15.75
2022-10-24T19:31:15.224Z,15.72
2022-10-24T19:33:42.418Z,15.70
2022-10-24T19:36:09.878Z,15.63
2022-10-24T19:38:37.225Z,15.60
2022-10-24T19:41:07.551Z,15.43
2022-10-24T19:43:34.815Z,15.37
2022-10-24T19:46:19.280Z,15.34
2022-10-24T19:48:49.534Z,15.36
2022-10-24T19:51:18.078Z,15.25
2022-10-24T19:53:46.040Z,15.26
2022-10-24T19:56:20.181Z,15.17
2022-10-24T19:58:49.653Z,15.31
2022-10-24T20:01:19.722Z,15.28
2022-10-24T20:03:48.163Z,15.30
2022-10-24T20:06:15.715Z,15.29
2022-10-24T20:08:42.964Z,15.18
2022-10-24T20:11:10.082Z,15.12
2022-10-24T20:13:36.896Z,15.13
2022-10-24T20:16:06.221Z,15.09
2022-10-24T20:18:35.296Z,15.12
2022-10-24T20:21:04.407Z,15.17
2022-10-24T20:23:31.821Z,15.09
2022-10-24T20:26:07.790Z,15.09
2022-10-24T20:28:36.688Z,15.09
2022-10-24T20:31:03.896Z,15.11
2022-10-24T20:33:30.718Z,15.11
2022-10-24T20:36:01.602Z,15.12
2022-10-24T20:38:29.160Z,15.06
2022-10-24T20:41:01.405Z,15.10
2022-10-24T20:43:29.065Z,15.00
2022-10-24T20:45:55.762Z,15.05
2022-10-24T20:48:22.858Z,14.93
2022-10-24T20:50:49.788Z,15.01
2022-10-24T20:53:16.679Z,14.89
2022-10-24T20:55:44.747Z,15.00
2022-10-24T20:58:13.814Z,15.09
2022-10-24T21:03:27.959Z,15.17
2022-10-24T21:05:54.696Z,15.25
2022-10-24T21:08:21.430Z,15.27
2022-10-24T21:10:48.197Z,15.39
2022-10-24T21:13:15.059Z,15.48
2022-10-24T21:15:41.928Z,15.56
2022-10-24T21:18:08.647Z,15.57
2022-10-24T21:20:36.128Z,15.69
2022-10-24T21:23:02.793Z,15.57
2022-10-24T21:25:29.913Z,15.64
2022-10-24T21:27:56.784Z,15.73
2022-10-24T21:30:23.583Z,15.73
2022-10-24T21:32:50.460Z,15.72
2022-10-24T21:35:17.295Z,15.81
2022-10-24T21:37:44.374Z,15.87
2022-10-24T21:40:11.828Z,15.80
2022-10-24T21:42:38.615Z,15.73
2022-10-24T21:45:06.097Z,15.80
2022-10-24T21:47:32.838Z,15.86
2022-10-24T21:49:59.609Z,15.89
2022-10-24T21:52:26.766Z,15.82
2022-10-24T21:54:53.552Z,15.73
2022-10-24T21:57:20.227Z,15.72
2022-10-24T21:59:47.006Z,15.74
2022-10-24T22:02:13.852Z,15.71
2022-10-24T22:04:40.739Z,15.70
2022-10-24T22:07:07.491Z,15.65
2022-10-24T22:09:34.297Z,15.52
2022-10-24T22:12:01.167Z,15.38
2022-10-24T22:14:27.911Z,15.46
2022-10-24T22:16:54.808Z,15.49
2022-10-24T22:19:21.777Z,15.52
2022-10-24T22:21:50.095Z,15.61
2022-10-24T22:24:22.321Z,15.56
2022-10-24T22:26:49.574Z,15.53
2022-10-24T22:29:19.159Z,15.62
2022-10-24T22:31:46.718Z,15.59
2022-10-24T22:34:17.426Z,15.59
2022-10-24T22:37:16.347Z,15.52
2022-10-24T22:39:43.585Z,15.65
2022-10-24T22:42:13.572Z,15.53
2022-10-24T22:44:43.819Z,15.50
2022-10-24T22:47:45.903Z,15.38
2022-10-24T22:50:21.991Z,15.28
2022-10-24T22:52:50.080Z,15.37
2022-10-24T22:55:31.893Z,15.31
2022-10-24T22:57:59.003Z,15.28
2022-10-24T23:00:26.398Z,15.24
2022-10-24T23:03:04.419Z,15.15
2022-10-24T23:05:37.070Z,15.10
2022-10-24T23:08:06.919Z,15.21
2022-10-24T23:10:34.406Z,15.15
2022-10-24T23:13:01.725Z,15.12
2022-10-24T23:15:29.000Z,15.02
2022-10-24T23:17:55.909Z,15.03
2022-10-24T23:20:33.131Z,14.97
2022-10-24T23:23:16.592Z,14.90
2022-10-24T23:25:53.190Z,14.91
2022-10-24T23:28:29.514Z,14.75
2022-10-24T23:30:56.710Z,14.59
2022-10-24T23:33:29.610Z,14.67
2022-10-24T23:35:59.475Z,14.63
2022-10-24T23:38:27.133Z,14.59
2022-10-24T23:40:54.325Z,14.59
2022-10-24T23:43:22.113Z,14.47
2022-10-24T23:45:58.100Z,14.38
2022-10-24T23:49:03.021Z,14.23
2022-10-24T23:51:42.406Z,14.11
2022-10-24T23:54:11.120Z,14.17
2022-10-24T23:56:38.631Z,14.02
2022-10-24T23:59:05.731Z,14.00
